createdAt,value
2022-10-01T00:01:58.162Z,96038.25
2022-10-01T00:04:24.806Z,96039.03
2022-10-01T00:06:51.271Z,96028.31
2022-10-01T00:09:18.309Z,96021.53
2022-10-01T00:11:44.789Z,96014.75
2022-10-01T00:14:11.259Z,96029.84
2022-10-01T00:16:38.193Z,96029.84
2022-10-01T00:19:04.757Z,96026.91
2022-10-01T00:21:32.437Z,96045.72
2022-10-01T00:24:04.811Z,96036.41
2022-10-01T00:26:32.654Z,96038.00
2022-10-01T00:29:05.185Z,96036.94
2022-10-01T00:31:32.496Z,96024.78
2022-10-01T00:34:02.789Z,96042.47
2022-10-01T00:36:29.854Z,96028.56
2022-10-01T00:39:00.320Z,96031.69
2022-10-01T00:41:28.777Z,96032.88
2022-10-01T00:44:00.719Z,96036.63
2022-10-01T00:46:38.823Z,96034.34
2022-10-01T00:49:10.339Z,96038.81
2022-10-01T00:51:42.633Z,96039.59
2022-10-01T00:54:15.297Z,96042.63
2022-10-01T00:56:43.891Z,96035.84
2022-10-01T00:59:12.036Z,96029.94
2022-10-01T01:01:39.321Z,96042.38
2022-10-01T01:04:16.575Z,96044.69
2022-10-01T01:06:47.629Z,96051.16
2022-10-01T01:09:14.422Z,96047.31
2022-10-01T01:12:05.270Z,96042.25
2022-10-01T01:14:41.949Z,96048.13
2022-10-01T01:17:18.395Z,96034.88
2022-10-01T01:19:47.904Z,96047.84
2022-10-01T01:22:16.328Z,96045.78
2022-10-01T01:24:55.902Z,96052.91
2022-10-01T01:27:36.003Z,96056.41
2022-10-01T01:30:15.057Z,96044.53
2022-10-01T01:32:50.356Z,96034.00
2022-10-01T01:35:44.130Z,96043.16
2022-10-01T01:38:15.700Z,96035.53
2022-10-01T01:40:44.514Z,96023.97
2022-10-01T01:43:20.483Z,96026.13
2022-10-01T01:45:53.692Z,96019.94
2022-10-01T01:48:20.384Z,96018.06
2022-10-01T01:50:52.426Z,96020.50
2022-10-01T01:53:20.202Z,96000.88
2022-10-01T01:55:49.396Z,96028.31
2022-10-01T01:58:18.668Z,96025.16
2022-10-01T02:00:48.390Z,96025.94
2022-10-01T02:03:14.927Z,96019.97
2022-10-01T02:05:51.696Z,96021.75
2022-10-01T02:08:24.375Z,96029.13
2022-10-01T02:10:59.879Z,96037.88
2022-10-01T02:13:45.577Z,96042.84
2022-10-01T02:16:27.558Z,96039.16
2022-10-01T02:19:05.078Z,96048.94
2022-10-01T02:21:39.653Z,96047.59
2022-10-01T02:24:14.578Z,96046.81
2022-10-01T02:26:43.434Z,96045.81
2022-10-01T02:29:13.569Z,96054.56
2022-10-01T02:31:41.385Z,96039.97
2022-10-01T02:34:12.733Z,96040.28
2022-10-01T02:36:41.631Z,96043.53
2022-10-01T02:39:09.827Z,96027.22
2022-10-01T02:41:37.046Z,96035.47
2022-10-01T02:44:12.382Z,96043.13
2022-10-01T02:46:52.404Z,96034.63
2022-10-01T02:49:19.268Z,96028.25
2022-10-01T02:52:02.574Z,96020.03
2022-10-01T02:54:40.303Z,96026.03
2022-10-01T02:57:27.181Z,96028.25
2022-10-01T02:59:57.134Z,96019.94
2022-10-01T03:02:28.255Z,96018.41
2022-10-01T03:04:58.940Z,96029.34
2022-10-01T03:07:27.380Z,96008.47
2022-10-01T03:09:54.639Z,96019.84
2022-10-01T03:12:21.925Z,96023.66
2022-10-01T03:14:48.454Z,96022.56
2022-10-01T03:17:16.227Z,96020.69
2022-10-01T03:19:42.912Z,96014.25
2022-10-01T03:22:13.088Z,96010.50
2022-10-01T03:24:39.549Z,96014.31
2022-10-01T03:27:06.639Z,96011.09
2022-10-01T03:29:33.416Z,96004.72
2022-10-01T03:31:59.951Z,96008.47
2022-10-01T03:34:26.624Z,95994.28
2022-10-01T03:36:53.321Z,96002.63
2022-10-01T03:39:20.038Z,96002.03
2022-10-01T03:41:46.544Z,95999.22
2022-10-01T03:44:13.053Z,95992.16
2022-10-01T03:46:39.609Z,95991.25
2022-10-01T03:49:06.107Z,95990.38
2022-10-01T03:51:33.680Z,96002.69
2022-10-01T03:54:00.309Z,96007.78
2022-10-01T03:56:26.853Z,96003.78
2022-10-01T03:58:53.341Z,95997.56
2022-10-01T04:01:20.360Z,96012.91
2022-10-01T04:03:47.157Z,96002.66
2022-10-01T04:06:13.746Z,96009.88
2022-10-01T04:08:40.514Z,96001.44
2022-10-01T04:11:07.627Z,96018.34
2022-10-01T04:13:34.897Z,96013.81
2022-10-01T04:16:05.505Z,96011.84
2022-10-01T04:18:32.233Z,96021.13
2022-10-01T04:20:58.949Z,96019.00
2022-10-01T04:23:26.697Z,96017.56
2022-10-01T04:25:53.397Z,96018.41
2022-10-01T04:28:20.119Z,96008.66
2022-10-01T04:30:46.877Z,96006.44
2022-10-01T04:33:16.055Z,96006.78
2022-10-01T04:35:43.595Z,96001.06
2022-10-01T04:38:16.529Z,96000.81
2022-10-01T04:40:43.019Z,96003.38
2022-10-01T04:43:11.127Z,95994.63
2022-10-01T04:45:38.006Z,96003.91
2022-10-01T04:48:05.247Z,96005.00
2022-10-01T04:50:32.612Z,95995.41
2022-10-01T04:52:59.318Z,95991.75
2022-10-01T04:55:25.887Z,96000.75
2022-10-01T04:57:52.337Z,95996.75
2022-10-01T05:00:22.008Z,96013.81
2022-10-01T05:02:49.919Z,96006.50
2022-10-01T05:05:18.166Z,96012.00
2022-10-01T05:07:45.636Z,96004.38
2022-10-01T05:10:15.661Z,96015.97
2022-10-01T05:12:42.363Z,96013.59
2022-10-01T05:15:09.886Z,96021.41
2022-10-01T05:17:36.624Z,96029.19
2022-10-01T05:20:06.051Z,96024.69
2022-10-01T05:22:33.159Z,96028.06
2022-10-01T05:25:01.154Z,96031.16
2022-10-01T05:27:28.133Z,96024.03
2022-10-01T05:29:54.948Z,96025.56
2022-10-01T05:32:21.411Z,96029.88
2022-10-01T05:34:52.619Z,96019.22
2022-10-01T05:37:19.844Z,96012.28
2022-10-01T05:39:46.625Z,95988.50
2022-10-01T05:42:13.138Z,96012.53
2022-10-01T05:44:46.027Z,96016.03
2022-10-01T05:47:14.156Z,96002.09
2022-10-01T05:49:42.894Z,96012.28
2022-10-01T05:52:14.125Z,96013.16
2022-10-01T05:54:41.414Z,96011.84
2022-10-01T05:57:08.522Z,96017.81
2022-10-01T05:59:35.452Z,96014.41
2022-10-01T06:02:04.013Z,96029.34
2022-10-01T06:04:30.928Z,96015.50
2022-10-01T06:06:57.574Z,96019.56
2022-10-01T06:09:24.031Z,96021.25
2022-10-01T06:11:50.612Z,96015.28
2022-10-01T06:14:17.083Z,96027.03
2022-10-01T06:16:43.795Z,96027.81
2022-10-01T06:19:10.492Z,96024.16
2022-10-01T06:21:37.398Z,96036.50
2022-10-01T06:24:04.245Z,96036.06
2022-10-01T06:26:31.275Z,96041.91
2022-10-01T06:28:57.809Z,96034.63
2022-10-01T06:31:25.249Z,96048.69
2022-10-01T06:33:51.863Z,96042.25
2022-10-01T06:36:18.500Z,96039.31
2022-10-01T06:38:48.268Z,96041.56
2022-10-01T06:41:14.941Z,96042.94
2022-10-01T06:43:41.459Z,96042.63
2022-10-01T06:46:08.048Z,96045.69
2022-10-01T06:48:36.426Z,96046.97
2022-10-01T06:51:04.133Z,96046.44
2022-10-01T06:53:30.880Z,96053.31
2022-10-01T06:55:57.820Z,96049.03
2022-10-01T06:58:28.312Z,96043.75
2022-10-01T07:01:03.301Z,96045.63
2022-10-01T07:03:31.233Z,96041.88
2022-10-01T07:06:05.351Z,96051.03
2022-10-01T07:08:33.203Z,96049.84
2022-10-01T07:11:05.011Z,96042.28
2022-10-01T07:13:31.511Z,96045.59
2022-10-01T07:15:58.095Z,96037.63
2022-10-01T07:18:24.682Z,96041.38
2022-10-01T07:20:51.195Z,96035.97
2022-10-01T07:23:17.988Z,96039.59
2022-10-01T07:25:45.785Z,96045.22
2022-10-01T07:28:18.962Z,96048.75
2022-10-01T07:31:11.454Z,96050.34
2022-10-01T07:33:41.646Z,96051.00
2022-10-01T07:36:10.856Z,96054.06
2022-10-01T07:38:37.307Z,96049.16
2022-10-01T07:41:04.711Z,96040.69
2022-10-01T07:43:34.229Z,96048.09
2022-10-01T07:46:02.010Z,96042.56
2022-10-01T07:48:28.784Z,96048.78
2022-10-01T07:50:55.269Z,96049.75
2022-10-01T07:53:23.644Z,96052.25
2022-10-01T07:55:50.115Z,96057.06
2022-10-01T07:58:16.671Z,96045.31
2022-10-01T08:00:43.607Z,96044.59
2022-10-01T08:03:12.200Z,96053.34
2022-10-01T08:05:42.069Z,96050.56
2022-10-01T08:08:09.047Z,96053.69
2022-10-01T08:10:38.264Z,96052.16
2022-10-01T08:13:14.862Z,96048.38
2022-10-01T08:15:43.472Z,96047.59
2022-10-01T08:18:11.273Z,96046.47
2022-10-01T08:20:39.622Z,96048.34
2022-10-01T08:23:10.375Z,96039.59
2022-10-01T08:25:37.561Z,96043.78
2022-10-01T08:28:04.645Z,96044.50
2022-10-01T08:30:31.330Z,96034.66
2022-10-01T08:32:59.873Z,96038.06
2022-10-01T08:35:28.639Z,96029.38
2022-10-01T08:38:02.052Z,96029.00
2022-10-01T08:40:29.592Z,96023.31
2022-10-01T08:42:56.013Z,96030.91
2022-10-01T08:45:51.722Z,96029.38
2022-10-01T08:48:46.255Z,96027.88
2022-10-01T08:51:29.842Z,96021.03
2022-10-01T08:54:04.743Z,96019.47
2022-10-01T08:56:35.971Z,96019.84
2022-10-01T08:59:33.877Z,96017.22
2022-10-01T09:02:00.470Z,96014.13
2022-10-01T09:04:27.915Z,96008.81
2022-10-01T09:07:19.615Z,96014.91
2022-10-01T09:10:17.113Z,96009.94
2022-10-01T09:13:13.457Z,96006.16
2022-10-01T09:15:51.986Z,96007.28
2022-10-01T09:18:28.411Z,95985.25
2022-10-01T09:21:00.094Z,95988.53
2022-10-01T09:23:29.763Z,95991.81
2022-10-01T09:25:59.650Z,95984.94
2022-10-01T09:28:34.117Z,95988.66
2022-10-01T09:31:17.529Z,95975.75
2022-10-01T09:33:55.943Z,95984.16
2022-10-01T09:36:49.979Z,95976.34
2022-10-01T09:39:39.977Z,95976.41
2022-10-01T09:42:06.710Z,95977.59
2022-10-01T09:44:34.117Z,95973.03
2022-10-01T09:47:01.096Z,95974.56
2022-10-01T09:49:39.550Z,95971.94
2022-10-01T09:52:30.683Z,95970.78
2022-10-01T09:55:11.465Z,95966.56
2022-10-01T09:57:43.211Z,95969.94
2022-10-01T10:00:25.174Z,95960.78
2022-10-01T10:02:54.181Z,95963.47
2022-10-01T10:05:26.031Z,95949.06
2022-10-01T10:08:03.583Z,95957.13
2022-10-01T10:10:35.900Z,95956.38
2022-10-01T10:13:20.205Z,95951.06
2022-10-01T10:15:53.638Z,95945.38
2022-10-01T10:18:28.588Z,95948.78
2022-10-01T10:20:56.266Z,95953.28
2022-10-01T10:23:29.597Z,95954.03
2022-10-01T10:26:03.182Z,95948.00
2022-10-01T10:28:43.820Z,95947.94
2022-10-01T10:31:19.910Z,95949.41
2022-10-01T10:33:57.610Z,95954.78
2022-10-01T10:36:29.372Z,95958.19
2022-10-01T10:38:57.894Z,95948.75
2022-10-01T10:41:26.622Z,95943.03
2022-10-01T10:44:07.248Z,95946.47
2022-10-01T10:46:38.168Z,95949.53
2022-10-01T10:49:08.730Z,95952.19
2022-10-01T10:51:56.551Z,95943.94
2022-10-01T10:54:41.334Z,95948.09
2022-10-01T10:57:21.308Z,95959.88
2022-10-01T11:00:00.215Z,95958.31
2022-10-01T11:02:32.281Z,95957.13
2022-10-01T11:05:03.828Z,95959.09
2022-10-01T11:07:31.778Z,95952.25
2022-10-01T11:10:04.468Z,95963.28
2022-10-01T11:12:34.274Z,95958.72
2022-10-01T11:15:26.163Z,95966.72
2022-10-01T11:18:16.535Z,95967.84
2022-10-01T11:21:04.355Z,95964.44
2022-10-01T11:23:55.294Z,95955.31
2022-10-01T11:26:25.059Z,95955.72
2022-10-01T11:29:00.533Z,95959.88
2022-10-01T11:31:51.529Z,95956.44
2022-10-01T11:34:39.418Z,95967.00
2022-10-01T11:37:16.293Z,95966.56
2022-10-01T11:39:44.913Z,95969.94
2022-10-01T11:42:18.933Z,95973.72
2022-10-01T11:44:52.435Z,95967.22
2022-10-01T11:47:30.486Z,95980.06
2022-10-01T11:50:03.210Z,95970.56
2022-10-01T11:53:20.530Z,95975.03
2022-10-01T11:56:12.044Z,95973.38
2022-10-01T11:58:58.721Z,95974.13
2022-10-01T12:02:02.488Z,95962.31
2022-10-01T12:04:32.492Z,95962.28
2022-10-01T12:07:16.991Z,95971.66
2022-10-01T12:09:55.271Z,95983.66
2022-10-01T12:12:30.991Z,95993.78
2022-10-01T12:15:11.264Z,95994.50
2022-10-01T12:17:54.020Z,95982.06
2022-10-01T12:20:29.932Z,95970.78
2022-10-01T12:22:59.786Z,95978.34
2022-10-01T12:25:44.344Z,95983.56
2022-10-01T12:28:18.422Z,95969.94
2022-10-01T12:30:53.863Z,95964.66
2022-10-01T12:33:39.250Z,95973.69
2022-10-01T12:36:11.602Z,95988.03
2022-10-01T12:39:29.382Z,95955.50
2022-10-01T12:42:07.554Z,95984.47
2022-10-01T12:44:39.978Z,95978.59
2022-10-01T12:47:29.906Z,95970.38
2022-10-01T12:50:12.052Z,95967.41
2022-10-01T12:52:38.359Z,95971.50
2022-10-01T12:55:13.796Z,95977.69
2022-10-01T12:58:15.789Z,95979.66
2022-10-01T13:00:52.294Z,95976.16
2022-10-01T13:03:21.651Z,96000.28
2022-10-01T13:06:23.362Z,96008.06
2022-10-01T13:09:06.004Z,96003.25
2022-10-01T13:11:49.053Z,95992.78
2022-10-01T13:14:18.886Z,95993.16
2022-10-01T13:17:05.785Z,96008.59
2022-10-01T13:19:39.576Z,95997.25
2022-10-01T13:22:14.765Z,95998.06
2022-10-01T13:24:51.458Z,96010.03
2022-10-01T13:27:46.633Z,96000.59
2022-10-01T13:30:18.406Z,95999.84
2022-10-01T13:33:00.853Z,95992.72
2022-10-01T13:35:35.188Z,95996.41
2022-10-01T13:38:29.023Z,95991.06
2022-10-01T13:41:01.798Z,95997.75
2022-10-01T13:43:30.539Z,95992.09
2022-10-01T13:46:07.096Z,95989.13
2022-10-01T13:48:35.382Z,95986.41
2022-10-01T13:51:11.762Z,95974.63
2022-10-01T13:53:50.028Z,95965.47
2022-10-01T13:56:37.766Z,95964.31
2022-10-01T13:59:21.406Z,95956.03
2022-10-01T14:01:47.995Z,95958.66
2022-10-01T14:04:38.732Z,95962.44
2022-10-01T14:07:17.388Z,95965.47
2022-10-01T14:09:52.153Z,95959.47
2022-10-01T14:12:55.581Z,95958.66
2022-10-01T14:15:44.178Z,95968.22
2022-10-01T14:18:22.028Z,95966.28
2022-10-01T14:21:03.727Z,95965.53
2022-10-01T14:23:56.195Z,95959.13
2022-10-01T14:26:52.865Z,95967.91
2022-10-01T14:29:31.320Z,95970.19
2022-10-01T14:32:14.776Z,95970.63
2022-10-01T14:34:54.826Z,95963.44
2022-10-01T14:37:21.891Z,95962.38
2022-10-01T14:40:01.730Z,95950.53
2022-10-01T14:42:28.376Z,95961.56
2022-10-01T14:44:54.907Z,95957.84
2022-10-01T14:47:27.863Z,95960.50
2022-10-01T14:49:55.172Z,95959.72
2022-10-01T14:52:29.132Z,95946.78
2022-10-01T14:55:05.019Z,95964.38
2022-10-01T14:57:38.586Z,95961.69
2022-10-01T15:00:14.534Z,95966.34
2022-10-01T15:02:44.930Z,95966.41
2022-10-01T15:05:27.761Z,95970.56
2022-10-01T15:07:54.598Z,95966.41
2022-10-01T15:10:25.762Z,95975.88
2022-10-01T15:12:55.215Z,95965.22
2022-10-01T15:15:31.123Z,95967.84
2022-10-01T15:17:58.014Z,95955.28
2022-10-01T15:20:24.817Z,95943.88
2022-10-01T15:23:00.360Z,95964.91
2022-10-01T15:25:30.100Z,95961.50
2022-10-01T15:27:56.782Z,95951.63
2022-10-01T15:30:26.469Z,95948.66
2022-10-01T15:32:53.233Z,95948.66
2022-10-01T15:35:22.260Z,95955.88
2022-10-01T15:37:51.513Z,95960.81
2022-10-01T15:40:26.402Z,95951.03
2022-10-01T15:43:26.611Z,95949.47
2022-10-01T15:46:05.324Z,95950.59
2022-10-01T15:48:33.202Z,95940.72
2022-10-01T15:51:03.432Z,95943.78
2022-10-01T15:53:31.685Z,95951.00
2022-10-01T15:56:00.463Z,95957.81
2022-10-01T15:58:27.159Z,95954.44
2022-10-01T16:01:05.028Z,95947.16
2022-10-01T16:03:41.702Z,95967.97
2022-10-01T16:06:20.924Z,95959.66
2022-10-01T16:09:06.170Z,95950.91
2022-10-01T16:11:52.412Z,95956.53
2022-10-01T16:14:21.651Z,95958.47
2022-10-01T16:16:50.533Z,95961.88
2022-10-01T16:19:28.238Z,95964.59
2022-10-01T16:22:14.898Z,95973.19
2022-10-01T16:24:44.456Z,95980.31
2022-10-01T16:27:43.730Z,95979.63
2022-10-01T16:30:18.948Z,95976.91
2022-10-01T16:32:45.635Z,95981.44
2022-10-01T16:35:21.566Z,95980.25
2022-10-01T16:37:50.361Z,95992.03
2022-10-01T16:40:22.588Z,95991.53
2022-10-01T16:42:50.520Z,95986.91
2022-10-01T16:45:24.191Z,95997.56
2022-10-01T16:47:51.436Z,95994.56
2022-10-01T16:50:21.429Z,95997.94
2022-10-01T16:52:51.881Z,95989.94
2022-10-01T16:55:26.500Z,95994.09
2022-10-01T16:57:57.444Z,95994.09
2022-10-01T17:00:26.320Z,96000.06
2022-10-01T17:02:57.997Z,96000.47
2022-10-01T17:05:26.284Z,95997.03
2022-10-01T17:07:54.248Z,96006.44
2022-10-01T17:10:23.480Z,96007.63
2022-10-01T17:12:50.280Z,96010.50
2022-10-01T17:15:20.214Z,96012.94
2022-10-01T17:17:46.911Z,96011.78
2022-10-01T17:20:14.232Z,96006.03
2022-10-01T17:22:42.816Z,96008.69
2022-10-01T17:25:15.269Z,96015.78
2022-10-01T17:27:41.785Z,96016.13
2022-10-01T17:30:08.707Z,96018.13
2022-10-01T17:32:37.214Z,96009.44
2022-10-01T17:35:04.299Z,96026.81
2022-10-01T17:37:31.267Z,96030.59
2022-10-01T17:39:57.735Z,96034.31
2022-10-01T17:42:24.222Z,96036.69
2022-10-01T17:44:51.399Z,96032.84
2022-10-01T17:47:17.984Z,96045.69
2022-10-01T17:49:44.500Z,96049.91
2022-10-01T17:52:11.144Z,96047.19
2022-10-01T17:54:38.013Z,96058.59
2022-10-01T17:57:05.190Z,96055.97
2022-10-01T17:59:31.961Z,96062.09
2022-10-01T18:01:58.552Z,96058.75
2022-10-01T18:04:27.918Z,96064.88
2022-10-01T18:06:59.562Z,96064.88
2022-10-01T18:09:26.262Z,96069.50
2022-10-01T18:11:52.751Z,96072.16
2022-10-01T18:14:19.195Z,96069.91
2022-10-01T18:16:45.674Z,96079.47
2022-10-01T18:19:52.453Z,96076.03
2022-10-01T18:22:01.512Z,96085.47
2022-10-01T18:24:29.070Z,96086.28
2022-10-01T18:26:56.376Z,96094.56
2022-10-01T18:29:25.191Z,96109.66
2022-10-01T18:32:02.051Z,96103.34
2022-10-01T18:34:38.342Z,96103.34
2022-10-01T18:37:15.904Z,96109.78
2022-10-01T18:39:45.606Z,96113.94
2022-10-01T18:42:17.143Z,96115.06
2022-10-01T18:44:43.699Z,96122.63
2022-10-01T18:47:10.081Z,96121.94
2022-10-01T18:50:06.590Z,96122.72
2022-10-01T18:52:51.229Z,96125.28
2022-10-01T18:55:27.268Z,96126.47
2022-10-01T18:58:05.712Z,96125.41
2022-10-01T19:00:49.046Z,96123.13
2022-10-01T19:03:53.938Z,96128.94
2022-10-01T19:06:29.679Z,96125.88
2022-10-01T19:09:05.716Z,96122.81
2022-10-01T19:11:38.343Z,96129.25
2022-10-01T19:14:23.232Z,96129.78
2022-10-01T19:17:08.898Z,96120.94
2022-10-01T19:20:14.203Z,96145.69
2022-10-01T19:23:13.281Z,96139.25
2022-10-01T19:25:51.191Z,96141.50
2022-10-01T19:28:26.829Z,96134.34
2022-10-01T19:31:19.810Z,96142.00
2022-10-01T19:33:55.904Z,96129.59
2022-10-01T19:36:34.404Z,96142.03
2022-10-01T19:39:06.443Z,96144.34
2022-10-01T19:41:33.006Z,96149.63
2022-10-01T19:44:28.611Z,96160.63
2022-10-01T19:47:00.962Z,96158.78
2022-10-01T19:49:34.070Z,96153.84
2022-10-01T19:52:09.900Z,96159.09
2022-10-01T19:54:45.087Z,96164.03
2022-10-01T19:57:23.040Z,96173.19
2022-10-01T19:59:55.789Z,96178.44
2022-10-01T20:02:31.324Z,96179.97
2022-10-01T20:05:16.041Z,96177.63
2022-10-01T20:07:51.844Z,96195.38
2022-10-01T20:10:32.978Z,96195.03
2022-10-01T20:13:14.294Z,96201.13
2022-10-01T20:15:55.892Z,96206.69
2022-10-01T20:18:40.843Z,96201.69
2022-10-01T20:21:22.462Z,96208.47
2022-10-01T20:24:16.851Z,96208.81
2022-10-01T20:26:43.413Z,96218.31
2022-10-01T20:29:21.147Z,96216.06
2022-10-01T20:31:57.794Z,96206.53
2022-10-01T20:34:58.382Z,96213.78
2022-10-01T20:37:57.473Z,96227.81
2022-10-01T20:40:39.030Z,96226.31
2022-10-01T20:43:12.732Z,96223.31
2022-10-01T20:45:40.789Z,96230.47
2022-10-01T20:48:15.623Z,96215.13
2022-10-01T20:50:45.546Z,96234.22
2022-10-01T20:53:44.365Z,96245.16
2022-10-01T20:56:15.754Z,96250.06
2022-10-01T20:59:15.644Z,96253.00
2022-10-01T21:01:56.274Z,96252.25
2022-10-01T21:04:28.922Z,96262.81
2022-10-01T21:07:01.917Z,96260.94
2022-10-01T21:09:38.249Z,96260.19
2022-10-01T21:12:19.332Z,96267.28
2022-10-01T21:14:51.442Z,96275.16
2022-10-01T21:17:56.839Z,96280.38
2022-10-01T21:20:23.376Z,96280.03
2022-10-01T21:23:08.684Z,96288.44
2022-10-01T21:26:03.157Z,96293.72
2022-10-01T21:28:57.081Z,96294.78
2022-10-01T21:31:50.477Z,96303.84
2022-10-01T21:34:29.870Z,96303.88
2022-10-01T21:37:08.533Z,96309.47
2022-10-01T21:39:48.607Z,96309.94
2022-10-01T21:42:15.041Z,96315.59
2022-10-01T21:45:16.463Z,96316.78
2022-10-01T21:47:52.527Z,96317.88
2022-10-01T21:50:48.444Z,96320.13
2022-10-01T21:53:49.605Z,96322.56
2022-10-01T21:56:24.221Z,96320.94
2022-10-01T21:58:59.520Z,96336.41
2022-10-01T22:01:44.608Z,96332.28
2022-10-01T22:04:27.007Z,96326.25
2022-10-01T22:07:16.600Z,96338.34
2022-10-01T22:10:17.314Z,96348.25
2022-10-01T22:12:50.093Z,96354.97
2022-10-01T22:15:25.600Z,96362.84
2022-10-01T22:17:54.196Z,96373.59
2022-10-01T22:20:30.691Z,96370.03
2022-10-01T22:23:03.812Z,96378.41
2022-10-01T22:25:32.106Z,96386.06
2022-10-01T22:28:07.061Z,96382.66
2022-10-01T22:30:37.182Z,96390.50
2022-10-01T22:33:15.621Z,96391.34
2022-10-01T22:35:53.983Z,96394.53
2022-10-01T22:38:39.067Z,96402.06
2022-10-01T22:41:25.963Z,96397.06
2022-10-01T22:43:52.646Z,96403.19
2022-10-01T22:46:37.928Z,96415.00
2022-10-01T22:49:27.748Z,96414.31
2022-10-01T22:52:18.748Z,96408.94
2022-10-01T22:55:09.694Z,96420.75
2022-10-01T22:58:17.907Z,96429.88
2022-10-01T23:01:22.889Z,96429.53
2022-10-01T23:04:04.417Z,96434.16
2022-10-01T23:06:57.192Z,96439.91
2022-10-01T23:09:36.587Z,96447.38
2022-10-01T23:12:09.850Z,96452.22
2022-10-01T23:14:48.969Z,96454.53
2022-10-01T23:18:06.950Z,96455.78
2022-10-01T23:20:35.748Z,96445.13
2022-10-01T23:23:14.881Z,96449.34
2022-10-01T23:25:59.810Z,96464.13
2022-10-01T23:28:29.073Z,96473.19
2022-10-01T23:31:06.598Z,96481.13
2022-10-01T23:33:52.493Z,96478.84
2022-10-01T23:36:24.708Z,96484.25
2022-10-01T23:39:07.564Z,96493.38
2022-10-01T23:41:58.182Z,96483.88
2022-10-01T23:44:50.027Z,96490.31
2022-10-01T23:47:24.140Z,96491.06
2022-10-01T23:49:55.666Z,96493.31
2022-10-01T23:52:32.211Z,96503.16
2022-10-01T23:55:28.010Z,96500.06
2022-10-01T23:58:03.211Z,96511.44
